createdAt,value
2023-02-09T00:00:27.780Z,7.10
2023-02-09T00:02:55.618Z,7.50
2023-02-09T00:05:23.471Z,8.80
2023-02-09T00:07:51.417Z,8.60
2023-02-09T00:10:19.400Z,9.20
2023-02-09T00:13:04.648Z,12.87
2023-02-09T00:15:33.861Z,9.00
2023-02-09T00:18:01.720Z,7.73
2023-02-09T00:20:29.647Z,12.07
2023-02-09T00:22:57.569Z,9.30
2023-02-09T00:25:25.477Z,7.33
2023-02-09T00:27:53.432Z,8.97
2023-02-09T00:30:21.476Z,8.90
2023-02-09T00:32:50.737Z,8.70
2023-02-09T00:35:18.822Z,10.17
2023-02-09T00:37:46.754Z,8.57
2023-02-09T00:40:14.698Z,8.37
2023-02-09T00:42:42.572Z,12.03
2023-02-09T00:45:10.973Z,8.63
2023-02-09T00:47:38.905Z,8.23
2023-02-09T00:50:09.077Z,10.27
2023-02-09T00:52:37.208Z,7.13
2023-02-09T00:55:05.967Z,7.33
2023-02-09T00:57:33.848Z,9.47
2023-02-09T01:00:01.816Z,7.73
2023-02-09T01:02:30.005Z,7.63
2023-02-09T01:04:57.969Z,7.97
2023-02-09T01:07:27.333Z,7.53
2023-02-09T01:09:55.237Z,10.20
2023-02-09T01:12:23.317Z,7.40
2023-02-09T01:14:51.142Z,9.53
2023-02-09T01:17:19.066Z,7.60
2023-02-09T01:19:47.117Z,9.83
2023-02-09T01:22:16.370Z,10.70
2023-02-09T01:24:45.589Z,11.83
2023-02-09T01:27:13.513Z,6.50
2023-02-09T01:29:41.466Z,8.03
2023-02-09T01:32:09.497Z,8.73
2023-02-09T01:34:37.662Z,7.80
2023-02-09T01:37:05.558Z,11.00
2023-02-09T01:39:33.608Z,7.37
2023-02-09T01:42:03.590Z,7.77
2023-02-09T01:45:16.012Z,10.87
2023-02-09T01:47:48.127Z,9.67
2023-02-09T01:50:16.853Z,9.03
2023-02-09T01:52:46.907Z,7.73
2023-02-09T01:55:18.959Z,9.70
2023-02-09T01:57:52.574Z,10.07
2023-02-09T02:00:23.189Z,7.30
2023-02-09T02:02:54.687Z,7.90
2023-02-09T02:05:23.655Z,7.33
2023-02-09T02:07:57.581Z,9.77
2023-02-09T02:10:25.575Z,12.03
2023-02-09T02:12:55.867Z,8.13
2023-02-09T02:15:28.119Z,8.17
2023-02-09T02:18:19.548Z,7.30
2023-02-09T02:21:24.531Z,11.10
2023-02-09T02:24:17.538Z,8.83
2023-02-09T02:26:53.019Z,10.53
2023-02-09T02:29:42.897Z,9.30
2023-02-09T02:32:33.867Z,8.33
2023-02-09T02:35:06.145Z,10.70
2023-02-09T02:37:44.362Z,9.23
2023-02-09T02:40:25.298Z,7.73
2023-02-09T02:42:58.293Z,8.70
2023-02-09T02:45:41.277Z,9.40
2023-02-09T02:48:25.463Z,8.23
2023-02-09T02:51:07.787Z,6.97
2023-02-09T02:53:38.590Z,11.40
2023-02-09T02:56:11.493Z,7.80
2023-02-09T02:58:41.477Z,9.40
2023-02-09T03:01:13.452Z,7.87
2023-02-09T03:03:44.868Z,8.47
2023-02-09T03:06:14.565Z,8.13
2023-02-09T03:08:54.102Z,12.73
2023-02-09T03:11:24.592Z,7.57
2023-02-09T03:14:12.933Z,7.83
2023-02-09T03:16:45.860Z,8.97
2023-02-09T03:19:36.576Z,8.27
2023-02-09T03:22:09.166Z,7.40
2023-02-09T03:24:41.856Z,8.70
2023-02-09T03:27:17.517Z,9.83
2023-02-09T03:29:47.481Z,8.93
2023-02-09T03:32:16.139Z,8.80
2023-02-09T03:34:46.787Z,8.13
2023-02-09T03:37:14.824Z,7.93
2023-02-09T03:39:43.033Z,9.37
2023-02-09T03:42:11.332Z,6.73
2023-02-09T03:44:39.356Z,7.27
2023-02-09T03:47:09.370Z,8.33
2023-02-09T03:49:39.495Z,8.13
2023-02-09T03:52:11.044Z,9.87
2023-02-09T03:54:39.215Z,9.70
2023-02-09T03:57:07.602Z,8.60
2023-02-09T03:59:37.451Z,6.77
2023-02-09T04:02:07.383Z,7.23
2023-02-09T04:04:35.819Z,9.57
2023-02-09T04:07:04.464Z,10.30
2023-02-09T04:09:33.875Z,9.37
2023-02-09T04:12:01.784Z,9.17
2023-02-09T04:14:29.675Z,11.83
2023-02-09T04:16:57.553Z,7.70
2023-02-09T04:19:25.493Z,7.50
2023-02-09T04:21:53.342Z,8.40
2023-02-09T04:24:21.754Z,7.17
2023-02-09T04:26:50.977Z,10.30
2023-02-09T04:29:18.835Z,7.03
2023-02-09T04:31:46.741Z,9.13
2023-02-09T04:34:14.637Z,7.73
2023-02-09T04:36:42.525Z,8.57
2023-02-09T04:39:10.433Z,8.67
2023-02-09T04:41:38.359Z,7.83
2023-02-09T04:44:07.608Z,7.00
2023-02-09T04:46:35.697Z,11.43
2023-02-09T04:49:03.654Z,10.40
2023-02-09T04:51:31.524Z,10.00
2023-02-09T04:53:59.423Z,7.77
2023-02-09T04:56:27.296Z,8.97
2023-02-09T04:59:14.663Z,8.93
2023-02-09T05:01:43.835Z,8.63
2023-02-09T05:04:11.696Z,9.40
2023-02-09T05:06:39.601Z,11.03
2023-02-09T05:09:07.475Z,8.43
2023-02-09T05:11:35.293Z,8.93
2023-02-09T05:14:03.209Z,8.70
2023-02-09T05:16:31.259Z,6.90
2023-02-09T05:19:00.542Z,7.77
2023-02-09T05:21:28.393Z,7.90
2023-02-09T05:23:56.298Z,9.00
2023-02-09T05:26:24.232Z,6.97
2023-02-09T05:28:52.121Z,9.57
2023-02-09T05:31:20.410Z,10.77
2023-02-09T05:33:48.439Z,7.93
2023-02-09T05:36:17.636Z,9.40
2023-02-09T05:38:45.465Z,7.87
2023-02-09T05:41:36.102Z,8.67
2023-02-09T05:44:04.065Z,7.90
2023-02-09T05:46:32.143Z,8.23
2023-02-09T05:49:00.035Z,8.57
2023-02-09T05:51:29.301Z,8.97
2023-02-09T05:53:57.264Z,7.53
2023-02-09T05:56:25.139Z,7.10
2023-02-09T05:58:53.052Z,6.63
2023-02-09T06:01:20.976Z,7.67
2023-02-09T06:03:48.844Z,9.20
2023-02-09T06:06:16.724Z,9.13
2023-02-09T06:08:45.943Z,7.63
2023-02-09T06:11:13.843Z,9.80
2023-02-09T06:13:41.770Z,9.13
2023-02-09T06:16:10.031Z,7.57
2023-02-09T06:18:38.754Z,10.73
2023-02-09T06:21:07.202Z,6.87
2023-02-09T06:23:35.504Z,7.23
2023-02-09T06:26:08.877Z,7.73
2023-02-09T06:28:36.842Z,8.87
2023-02-09T06:31:05.912Z,9.87
2023-02-09T06:33:36.971Z,6.70
2023-02-09T06:36:06.417Z,8.53
2023-02-09T06:38:34.584Z,7.67
2023-02-09T06:41:02.522Z,8.50
2023-02-09T06:43:31.883Z,6.83
2023-02-09T06:45:59.854Z,8.17
2023-02-09T06:48:27.914Z,9.37
2023-02-09T06:50:55.826Z,9.77
2023-02-09T06:53:23.779Z,11.20
2023-02-09T06:55:51.833Z,8.33
2023-02-09T06:58:19.762Z,7.40
2023-02-09T07:00:49.006Z,7.77
2023-02-09T07:03:16.931Z,8.63
2023-02-09T07:05:44.889Z,8.40
2023-02-09T07:08:13.062Z,9.00
2023-02-09T07:10:41.710Z,12.17
2023-02-09T07:13:09.738Z,7.77
2023-02-09T07:15:37.667Z,8.67
2023-02-09T07:18:06.999Z,9.40
2023-02-09T07:20:34.891Z,11.73
2023-02-09T07:23:02.825Z,8.23
2023-02-09T07:25:32.130Z,10.40
2023-02-09T07:28:00.148Z,7.67
2023-02-09T07:30:28.186Z,7.20
2023-02-09T07:32:56.219Z,7.30
2023-02-09T07:35:25.499Z,12.00
2023-02-09T07:37:53.813Z,8.33
2023-02-09T07:40:22.283Z,9.17
2023-02-09T07:42:52.267Z,8.93
2023-02-09T07:45:20.318Z,8.57
2023-02-09T07:47:48.265Z,9.47
2023-02-09T07:50:17.689Z,10.20
2023-02-09T07:52:47.889Z,8.07
2023-02-09T07:55:15.873Z,6.93
2023-02-09T07:57:44.986Z,9.17
2023-02-09T08:00:14.257Z,7.33
2023-02-09T08:02:42.196Z,11.03
2023-02-09T08:05:15.237Z,8.90
2023-02-09T08:07:43.134Z,8.23
2023-02-09T08:10:12.582Z,8.10
2023-02-09T08:12:58.801Z,8.83
2023-02-09T08:15:29.794Z,7.70
2023-02-09T08:18:00.761Z,9.97
2023-02-09T08:20:30.170Z,8.57
2023-02-09T08:23:05.129Z,8.80
2023-02-09T08:25:35.966Z,8.03
2023-02-09T08:28:04.962Z,9.60
2023-02-09T08:30:34.141Z,7.90
2023-02-09T08:33:02.423Z,9.53
2023-02-09T08:35:30.919Z,8.03
2023-02-09T08:38:02.174Z,10.13
2023-02-09T08:40:30.616Z,15.67
2023-02-09T08:43:00.275Z,8.00
2023-02-09T08:45:28.814Z,9.37
2023-02-09T08:47:56.896Z,12.37
2023-02-09T08:50:24.953Z,7.87
2023-02-09T08:52:52.818Z,8.27
2023-02-09T08:55:20.717Z,8.67
2023-02-09T08:57:48.577Z,10.07
2023-02-09T09:00:18.918Z,11.07
2023-02-09T09:02:46.831Z,8.90
2023-02-09T09:05:14.868Z,10.50
2023-02-09T09:07:42.891Z,8.93
2023-02-09T09:10:11.493Z,10.20
2023-02-09T09:12:39.529Z,9.30
2023-02-09T09:15:07.989Z,9.17
2023-02-09T09:17:37.352Z,10.50
2023-02-09T09:20:06.829Z,10.20
2023-02-09T09:22:34.838Z,13.40
2023-02-09T09:25:02.805Z,7.47
2023-02-09T09:27:32.674Z,10.53
2023-02-09T09:30:00.628Z,11.23
2023-02-09T09:32:28.943Z,12.83
2023-02-09T09:35:00.042Z,10.23
2023-02-09T09:37:28.216Z,10.27
2023-02-09T09:39:56.263Z,9.57
2023-02-09T09:42:28.613Z,11.17
2023-02-09T09:44:57.067Z,10.93
2023-02-09T09:47:33.888Z,9.00
2023-02-09T09:50:03.358Z,11.40
2023-02-09T09:52:34.551Z,8.57
2023-02-09T09:55:06.583Z,13.07
2023-02-09T09:57:45.852Z,9.90
2023-02-09T10:00:20.000Z,9.70
2023-02-09T10:02:47.966Z,11.80
2023-02-09T10:05:20.589Z,8.93
2023-02-09T10:07:54.904Z,11.47
2023-02-09T10:10:34.481Z,10.47
2023-02-09T10:13:09.009Z,11.10
2023-02-09T10:15:38.124Z,13.57
2023-02-09T10:18:12.337Z,9.33
2023-02-09T10:20:44.385Z,12.20
2023-02-09T10:23:21.370Z,11.30
2023-02-09T10:26:20.818Z,11.10
2023-02-09T10:28:50.617Z,12.77
2023-02-09T10:31:25.127Z,10.43
2023-02-09T10:33:58.293Z,12.30
2023-02-09T10:36:31.528Z,11.77
2023-02-09T10:39:21.376Z,11.50
2023-02-09T10:41:50.999Z,11.43
2023-02-09T10:44:22.724Z,11.93
2023-02-09T10:46:53.103Z,11.80
2023-02-09T10:49:29.940Z,11.00
2023-02-09T10:52:08.077Z,15.83
2023-02-09T10:54:35.969Z,12.27
2023-02-09T10:57:06.556Z,15.00
2023-02-09T10:59:36.616Z,13.43
2023-02-09T11:02:04.792Z,11.93
2023-02-09T11:04:39.868Z,14.37
2023-02-09T11:07:12.459Z,11.30
2023-02-09T11:09:44.578Z,15.53
2023-02-09T11:12:13.362Z,14.97
2023-02-09T11:14:42.475Z,11.37
2023-02-09T11:17:17.489Z,12.63
2023-02-09T11:19:58.148Z,12.43
2023-02-09T11:22:43.326Z,15.53
2023-02-09T11:25:20.666Z,13.70
2023-02-09T11:28:10.028Z,13.80
2023-02-09T11:31:02.058Z,12.33
2023-02-09T11:33:40.887Z,13.10
2023-02-09T11:36:22.370Z,13.70
2023-02-09T11:38:55.418Z,15.17
2023-02-09T11:41:47.415Z,14.93
2023-02-09T11:44:24.445Z,11.80
2023-02-09T11:46:59.840Z,11.67
2023-02-09T11:49:30.410Z,15.07
2023-02-09T11:52:00.135Z,15.47
2023-02-09T11:54:33.994Z,13.53
2023-02-09T11:57:12.378Z,15.30
2023-02-09T11:59:44.413Z,13.30
2023-02-09T12:02:28.677Z,14.87
2023-02-09T12:05:00.293Z,10.87
2023-02-09T12:07:35.336Z,12.90
2023-02-09T12:10:16.115Z,13.73
2023-02-09T12:12:49.743Z,16.87
2023-02-09T12:15:20.576Z,15.00
2023-02-09T12:17:52.267Z,14.17
2023-02-09T12:20:30.393Z,13.80
2023-02-09T12:23:07.684Z,15.17
2023-02-09T12:25:51.521Z,13.67
2023-02-09T12:28:40.750Z,15.50
2023-02-09T12:31:13.172Z,16.97
2023-02-09T12:34:02.329Z,12.80
2023-02-09T12:36:31.381Z,14.30
2023-02-09T12:39:24.073Z,16.70
2023-02-09T12:42:38.839Z,14.60
2023-02-09T12:45:31.455Z,14.33
2023-02-09T12:48:00.322Z,16.97
2023-02-09T12:50:45.222Z,16.83
2023-02-09T12:53:44.874Z,17.40
2023-02-09T12:56:33.266Z,15.77
2023-02-09T12:59:18.125Z,19.07
2023-02-09T13:02:25.881Z,17.50
2023-02-09T13:05:04.869Z,16.20
2023-02-09T13:07:52.745Z,16.23
2023-02-09T13:10:26.780Z,14.67
2023-02-09T13:13:00.747Z,15.97
2023-02-09T13:15:45.314Z,12.73
2023-02-09T13:18:21.103Z,15.80
2023-02-09T13:21:12.346Z,15.93
2023-02-09T13:23:51.349Z,16.13
2023-02-09T13:26:22.814Z,14.53
2023-02-09T13:29:19.393Z,17.50
2023-02-09T13:31:59.920Z,16.67
2023-02-09T13:34:35.530Z,17.03
2023-02-09T13:37:20.478Z,14.83
2023-02-09T13:39:55.318Z,14.53
2023-02-09T13:42:25.316Z,14.20
2023-02-09T13:44:54.966Z,16.00
2023-02-09T13:47:25.184Z,16.07
2023-02-09T13:49:58.280Z,14.77
2023-02-09T13:52:26.882Z,13.13
2023-02-09T13:54:55.268Z,16.73
2023-02-09T13:57:32.037Z,15.53
2023-02-09T14:00:09.471Z,16.20
2023-02-09T14:02:39.443Z,14.63
2023-02-09T14:05:09.170Z,15.40
2023-02-09T14:07:38.624Z,15.13
2023-02-09T14:10:13.426Z,15.73
2023-02-09T14:12:56.543Z,16.27
2023-02-09T14:15:50.523Z,17.10
2023-02-09T14:18:42.337Z,13.57
2023-02-09T14:21:25.809Z,14.30
2023-02-09T14:24:18.928Z,15.57
2023-02-09T14:26:53.128Z,15.73
2023-02-09T14:29:25.842Z,16.13
2023-02-09T14:31:56.005Z,14.73
2023-02-09T14:34:36.791Z,15.13
2023-02-09T14:37:26.581Z,15.43
2023-02-09T14:39:55.759Z,18.63
2023-02-09T14:42:24.416Z,14.30
2023-02-09T14:44:55.102Z,14.07
2023-02-09T14:47:32.493Z,16.33
2023-02-09T14:50:02.436Z,16.00
2023-02-09T14:52:33.085Z,14.87
2023-02-09T14:55:04.623Z,16.83
2023-02-09T14:57:36.161Z,18.33
2023-02-09T15:00:16.873Z,16.20
2023-02-09T15:02:45.542Z,16.63
2023-02-09T15:05:14.897Z,17.03
2023-02-09T15:07:46.054Z,16.87
2023-02-09T15:10:24.549Z,18.87
2023-02-09T15:12:52.802Z,17.07
2023-02-09T15:15:22.219Z,21.83
2023-02-09T15:17:50.379Z,19.07
2023-02-09T15:20:24.351Z,15.00
2023-02-09T15:22:52.360Z,15.97
2023-02-09T15:25:20.270Z,20.03
2023-02-09T15:27:52.921Z,18.17
2023-02-09T15:30:23.061Z,17.43
2023-02-09T15:32:50.950Z,18.00
2023-02-09T15:35:22.230Z,17.13
2023-02-09T15:37:52.402Z,20.63
2023-02-09T15:40:41.229Z,18.87
2023-02-09T15:43:31.560Z,19.77
2023-02-09T15:46:17.300Z,20.83
2023-02-09T15:48:45.297Z,17.77
2023-02-09T15:51:15.388Z,19.93
2023-02-09T15:53:43.939Z,19.27
2023-02-09T15:56:14.179Z,18.23
2023-02-09T15:58:45.253Z,17.27
2023-02-09T16:01:15.712Z,16.93
2023-02-09T16:03:43.931Z,17.67
2023-02-09T16:06:16.914Z,22.37
2023-02-09T16:08:46.209Z,21.13
2023-02-09T16:11:20.556Z,20.00
2023-02-09T16:13:48.708Z,18.00
2023-02-09T16:16:17.900Z,20.10
2023-02-09T16:18:46.614Z,19.30
2023-02-09T16:21:23.266Z,19.53
2023-02-09T16:23:51.967Z,21.97
2023-02-09T16:26:21.039Z,19.33
2023-02-09T16:28:48.986Z,20.73
2023-02-09T16:31:16.939Z,18.47
2023-02-09T16:33:44.941Z,20.00
2023-02-09T16:36:16.650Z,22.00
2023-02-09T16:38:46.457Z,23.87
2023-02-09T16:41:31.528Z,20.13
2023-02-09T16:43:59.796Z,22.07
2023-02-09T16:46:31.560Z,19.77
2023-02-09T16:49:01.803Z,19.57
2023-02-09T16:51:29.755Z,21.93
2023-02-09T16:53:59.180Z,19.50
2023-02-09T16:56:27.548Z,25.93
2023-02-09T16:58:55.522Z,21.67
2023-02-09T17:01:24.536Z,17.73
2023-02-09T17:03:55.109Z,19.03
2023-02-09T17:06:25.322Z,25.10
2023-02-09T17:08:56.561Z,19.97
2023-02-09T17:11:28.003Z,21.53
2023-02-09T17:13:56.141Z,22.00
2023-02-09T17:16:26.383Z,20.43
2023-02-09T17:18:57.984Z,21.77
2023-02-09T17:21:28.121Z,18.43
2023-02-09T17:23:57.443Z,21.03
2023-02-09T17:26:27.128Z,23.80
2023-02-09T17:28:55.727Z,20.83
2023-02-09T17:31:25.798Z,20.37
2023-02-09T17:33:56.832Z,19.70
2023-02-09T17:36:28.096Z,22.47
2023-02-09T17:38:58.228Z,21.30
2023-02-09T17:41:33.478Z,22.07
2023-02-09T17:44:24.299Z,19.37
2023-02-09T17:46:59.865Z,22.27
2023-02-09T17:49:27.789Z,20.03
2023-02-09T17:51:55.821Z,18.73
2023-02-09T17:54:23.882Z,19.50
2023-02-09T17:56:53.379Z,19.97
2023-02-09T17:59:21.395Z,23.17
2023-02-09T18:01:51.159Z,23.67
2023-02-09T18:04:20.676Z,21.27
2023-02-09T18:06:48.992Z,28.83
2023-02-09T18:09:17.129Z,23.00
2023-02-09T18:12:02.601Z,24.30
2023-02-09T18:14:32.668Z,21.77
2023-02-09T18:17:01.179Z,22.93
2023-02-09T18:19:29.342Z,21.53
2023-02-09T18:21:59.292Z,22.03
2023-02-09T18:24:29.355Z,24.17
2023-02-09T18:26:57.886Z,21.20
2023-02-09T18:29:29.708Z,23.70
2023-02-09T18:31:58.247Z,23.60
2023-02-09T18:34:26.187Z,20.13
2023-02-09T18:36:54.281Z,24.40
2023-02-09T18:39:22.732Z,20.17
2023-02-09T18:41:54.874Z,21.97
2023-02-09T18:44:28.687Z,22.40
2023-02-09T18:47:00.580Z,24.37
2023-02-09T18:49:28.801Z,23.13
2023-02-09T18:51:58.806Z,25.07
2023-02-09T18:54:28.836Z,23.97
2023-02-09T18:56:56.961Z,23.30
2023-02-09T18:59:28.867Z,22.23
2023-02-09T19:01:58.489Z,23.80
2023-02-09T19:04:26.550Z,24.23
2023-02-09T19:06:54.510Z,23.77
2023-02-09T19:09:22.452Z,21.93
2023-02-09T19:11:50.368Z,23.37
2023-02-09T19:14:35.593Z,24.40
2023-02-09T19:17:05.352Z,20.00
2023-02-09T19:19:33.747Z,22.57
2023-02-09T19:22:01.645Z,27.93
2023-02-09T19:24:30.371Z,24.57
2023-02-09T19:26:58.261Z,24.63
2023-02-09T19:29:26.126Z,24.87
2023-02-09T19:31:55.596Z,20.40
2023-02-09T19:34:25.195Z,21.70
2023-02-09T19:36:53.639Z,23.10
2023-02-09T19:39:21.554Z,22.03
2023-02-09T19:41:49.610Z,23.30
2023-02-09T19:44:17.866Z,17.53
2023-02-09T19:46:46.103Z,22.37
2023-02-09T19:49:14.123Z,19.30
2023-02-09T19:51:43.840Z,22.00
2023-02-09T19:54:11.708Z,22.73
2023-02-09T19:56:40.202Z,25.73
2023-02-09T19:59:09.608Z,21.60
2023-02-09T20:01:39.515Z,21.73
2023-02-09T20:04:08.410Z,23.40
2023-02-09T20:06:36.525Z,20.10
2023-02-09T20:09:06.225Z,22.27
2023-02-09T20:11:34.579Z,17.73
2023-02-09T20:14:03.210Z,21.80
2023-02-09T20:16:31.375Z,25.93
2023-02-09T20:18:59.601Z,19.47
2023-02-09T20:21:27.609Z,19.97
2023-02-09T20:23:56.174Z,19.90
2023-02-09T20:26:29.085Z,22.30
2023-02-09T20:28:57.964Z,21.00
2023-02-09T20:31:28.499Z,27.13
2023-02-09T20:33:56.950Z,23.13
2023-02-09T20:36:25.815Z,19.90
2023-02-09T20:38:54.276Z,21.33
2023-02-09T20:41:22.271Z,21.83
2023-02-09T20:44:09.506Z,21.60
2023-02-09T20:46:57.650Z,21.63
2023-02-09T20:49:29.809Z,23.90
2023-02-09T20:51:58.492Z,22.70
2023-02-09T20:54:27.240Z,21.27
2023-02-09T20:56:55.193Z,21.57
2023-02-09T20:59:25.720Z,18.60
2023-02-09T21:01:53.759Z,21.57
2023-02-09T21:04:21.735Z,22.20
2023-02-09T21:06:49.863Z,23.03
2023-02-09T21:09:18.973Z,19.80
2023-02-09T21:11:46.988Z,19.33
2023-02-09T21:14:22.161Z,21.67
2023-02-09T21:17:01.688Z,19.07
2023-02-09T21:19:29.692Z,22.57
2023-02-09T21:21:57.785Z,17.90
2023-02-09T21:24:25.724Z,20.07
2023-02-09T21:26:53.653Z,17.93
2023-02-09T21:29:21.772Z,23.87
2023-02-09T21:31:51.326Z,19.20
2023-02-09T21:34:20.657Z,16.87
2023-02-09T21:36:48.590Z,19.93
2023-02-09T21:39:16.567Z,21.27
2023-02-09T21:42:01.730Z,20.43
2023-02-09T21:44:30.461Z,20.13
2023-02-09T21:46:58.621Z,18.50
2023-02-09T21:49:31.387Z,17.30
2023-02-09T21:51:59.566Z,17.07
2023-02-09T21:54:33.049Z,15.33
2023-02-09T21:57:01.322Z,17.90
2023-02-09T21:59:29.859Z,17.07
2023-02-09T22:01:58.211Z,20.30
2023-02-09T22:04:27.898Z,17.03
2023-02-09T22:06:55.980Z,16.10
2023-02-09T22:09:25.109Z,15.07
2023-02-09T22:11:53.141Z,16.23
2023-02-09T22:14:21.160Z,13.70
2023-02-09T22:16:49.172Z,17.73
2023-02-09T22:19:17.213Z,18.33
2023-02-09T22:21:46.596Z,13.63
2023-02-09T22:24:16.544Z,14.03
2023-02-09T22:26:44.848Z,16.63
2023-02-09T22:29:14.461Z,15.37
2023-02-09T22:31:42.841Z,15.53
2023-02-09T22:34:11.152Z,16.60
2023-02-09T22:36:39.863Z,18.13
2023-02-09T22:39:09.519Z,15.63
2023-02-09T22:41:37.838Z,16.70
2023-02-09T22:44:08.119Z,13.63
2023-02-09T22:46:37.677Z,16.37
2023-02-09T22:49:08.171Z,13.87
2023-02-09T22:51:37.747Z,15.33
2023-02-09T22:54:06.680Z,18.47
2023-02-09T22:56:36.301Z,12.97
2023-02-09T22:59:04.225Z,16.97
2023-02-09T23:01:32.271Z,18.13
2023-02-09T23:04:00.262Z,13.83
2023-02-09T23:06:30.277Z,12.90
2023-02-09T23:08:59.893Z,13.70
2023-02-09T23:11:29.246Z,13.80
2023-02-09T23:14:14.528Z,11.77
2023-02-09T23:16:44.494Z,14.07
2023-02-09T23:19:15.100Z,16.10
2023-02-09T23:21:44.940Z,10.97
2023-02-09T23:24:14.096Z,15.17
2023-02-09T23:26:42.354Z,11.23
2023-02-09T23:29:14.608Z,15.77
2023-02-09T23:31:43.212Z,15.97
2023-02-09T23:34:15.184Z,15.20
2023-02-09T23:36:43.284Z,14.50
2023-02-09T23:39:15.931Z,10.87
2023-02-09T23:41:44.258Z,10.60
2023-02-09T23:44:13.743Z,11.73
2023-02-09T23:46:41.913Z,14.90
2023-02-09T23:49:09.883Z,11.97
2023-02-09T23:51:37.850Z,8.77
2023-02-09T23:54:07.683Z,13.97
2023-02-09T23:56:37.730Z,11.07
2023-02-09T23:59:07.064Z,13.77
